createdAt,value
2017-04-17T00:00:24.984Z,13.67
2017-04-17T00:01:23.962Z,14.78
2017-04-17T00:02:22.985Z,11.13
2017-04-17T00:03:21.969Z,7.38
2017-04-17T00:04:21.018Z,8.57
2017-04-17T00:05:20.254Z,13.18
2017-04-17T00:06:19.182Z,8.25
2017-04-17T00:07:18.136Z,14.38
2017-04-17T00:08:17.192Z,11.17
2017-04-17T00:09:16.141Z,13.50
2017-04-17T00:10:15.112Z,11.98
2017-04-17T00:11:14.401Z,11.52
2017-04-17T00:12:13.377Z,10.68
2017-04-17T00:13:11.928Z,13.83
2017-04-17T00:14:10.966Z,11.32
2017-04-17T00:15:10.099Z,8.15
2017-04-17T00:16:09.087Z,10.35
2017-04-17T00:17:09.020Z,12.57
2017-04-17T00:18:07.979Z,11.23
2017-04-17T00:19:06.969Z,9.52
2017-04-17T00:20:05.933Z,11.27
2017-04-17T00:21:04.944Z,11.37
2017-04-17T00:22:04.080Z,10.88
2017-04-17T00:23:03.325Z,10.25
2017-04-17T00:24:02.666Z,10.23
2017-04-17T00:25:01.593Z,18.47
2017-04-17T00:26:00.523Z,9.55
2017-04-17T00:26:59.648Z,13.27
2017-04-17T00:27:59.044Z,11.30
2017-04-17T00:28:58.249Z,10.33
2017-04-17T00:29:57.198Z,10.65
2017-04-17T00:30:56.212Z,12.00
2017-04-17T00:31:55.790Z,9.18
2017-04-17T00:32:54.785Z,13.23
2017-04-17T00:33:53.714Z,9.90
2017-04-17T00:34:53.126Z,8.10
2017-04-17T00:35:52.088Z,10.70
2017-04-17T00:36:51.080Z,8.03
2017-04-17T00:37:50.013Z,10.17
2017-04-17T00:38:49.018Z,11.92
2017-04-17T00:39:48.345Z,12.75
2017-04-17T00:40:47.985Z,14.90
2017-04-17T00:41:46.958Z,10.82
2017-04-17T00:42:46.050Z,11.27
2017-04-17T00:43:44.983Z,9.23
2017-04-17T00:44:43.977Z,10.57
2017-04-17T00:45:42.951Z,11.03
2017-04-17T00:46:42.182Z,13.02
2017-04-17T00:47:41.218Z,11.07
2017-04-17T00:48:40.190Z,14.28
2017-04-17T00:49:39.133Z,9.57
2017-04-17T00:50:38.122Z,9.50
2017-04-17T00:51:37.073Z,10.00
2017-04-17T00:52:36.276Z,11.92
2017-04-17T00:53:35.191Z,12.18
2017-04-17T00:54:34.124Z,12.13
2017-04-17T00:55:33.075Z,12.58
2017-04-17T00:56:32.044Z,9.82
2017-04-17T00:57:30.962Z,9.00
2017-04-17T00:58:30.278Z,10.12
2017-04-17T00:59:29.253Z,8.88
2017-04-17T01:00:28.321Z,11.05
2017-04-17T01:01:27.422Z,9.50
2017-04-17T01:02:26.490Z,9.48
2017-04-17T01:03:25.427Z,10.48
2017-04-17T01:04:24.686Z,8.30
2017-04-17T01:05:23.732Z,9.83
2017-04-17T01:06:22.695Z,10.60
2017-04-17T01:07:21.640Z,9.12
2017-04-17T01:08:20.622Z,10.55
2017-04-17T01:09:19.567Z,11.05
2017-04-17T01:10:18.785Z,12.88
2017-04-17T01:11:17.723Z,10.37
2017-04-17T01:12:16.309Z,11.45
2017-04-17T01:13:15.356Z,9.75
2017-04-17T01:14:14.302Z,9.32
2017-04-17T01:15:13.229Z,10.25
2017-04-17T01:16:12.476Z,7.10
2017-04-17T01:17:11.424Z,10.63
2017-04-17T01:18:09.945Z,8.48
2017-04-17T01:19:08.907Z,10.13
2017-04-17T01:20:08.244Z,9.50
2017-04-17T01:21:07.175Z,11.58
2017-04-17T01:22:06.385Z,10.18
2017-04-17T01:23:05.434Z,9.43
2017-04-17T01:24:04.405Z,8.52
2017-04-17T01:25:03.355Z,8.32
2017-04-17T01:26:02.321Z,9.57
2017-04-17T01:27:01.366Z,13.33
2017-04-17T01:28:00.672Z,11.00
2017-04-17T01:28:59.734Z,7.32
2017-04-17T01:29:58.692Z,12.72
2017-04-17T01:30:57.647Z,10.35
2017-04-17T01:31:56.606Z,9.60
2017-04-17T01:32:55.550Z,9.13
2017-04-17T01:33:54.680Z,8.87
2017-04-17T01:34:53.592Z,14.08
2017-04-17T01:35:52.659Z,6.63
2017-04-17T01:36:51.588Z,12.40
2017-04-17T01:37:50.528Z,7.63
2017-04-17T01:38:49.507Z,11.50
2017-04-17T01:39:48.776Z,8.35
2017-04-17T01:40:48.121Z,9.92
2017-04-17T01:41:47.095Z,9.50
2017-04-17T01:42:46.101Z,10.67
2017-04-17T01:43:45.061Z,9.90
2017-04-17T01:44:44.011Z,8.72
2017-04-17T01:45:43.285Z,12.28
2017-04-17T01:46:42.217Z,12.10
2017-04-17T01:47:41.200Z,6.78
2017-04-17T01:48:40.124Z,11.82
2017-04-17T01:49:38.685Z,10.15
2017-04-17T01:50:37.648Z,9.95
2017-04-17T01:51:36.845Z,9.95
2017-04-17T01:52:35.790Z,8.55
2017-04-17T01:53:34.721Z,6.10
2017-04-17T01:54:33.638Z,8.62
2017-04-17T01:55:32.601Z,12.32
2017-04-17T01:56:31.520Z,8.97
2017-04-17T01:57:30.366Z,10.02
2017-04-17T01:58:29.310Z,7.60
2017-04-17T01:59:28.286Z,11.93
2017-04-17T02:00:27.213Z,8.15
2017-04-17T02:01:26.176Z,13.28
2017-04-17T02:02:25.155Z,7.48
2017-04-17T02:03:24.059Z,8.68
2017-04-17T02:04:23.433Z,14.12
2017-04-17T02:05:22.508Z,9.30
2017-04-17T02:06:21.496Z,10.42
2017-04-17T02:07:20.457Z,12.42
2017-04-17T02:08:19.561Z,12.17
2017-04-17T02:09:19.181Z,6.97
2017-04-17T02:10:18.255Z,11.40
2017-04-17T02:11:17.278Z,9.23
2017-04-17T02:12:16.294Z,9.23
2017-04-17T02:13:15.495Z,10.57
2017-04-17T02:14:14.476Z,8.70
2017-04-17T02:15:14.104Z,11.87
2017-04-17T02:16:14.066Z,11.90
2017-04-17T02:18:33.146Z,14.00
2017-04-17T02:19:32.202Z,10.18
2017-04-17T02:20:31.831Z,12.23
2017-04-17T02:21:30.779Z,12.00
2017-04-17T02:22:29.755Z,15.70
2017-04-17T02:23:28.686Z,8.18
2017-04-17T02:24:27.642Z,11.72
2017-04-17T02:25:26.602Z,12.55
2017-04-17T02:26:25.898Z,11.17
2017-04-17T02:27:24.845Z,11.37
2017-04-17T02:28:23.764Z,9.78
2017-04-17T02:29:22.705Z,9.23
2017-04-17T02:30:21.667Z,11.43
2017-04-17T02:31:20.626Z,12.00
2017-04-17T02:32:19.856Z,15.85
2017-04-17T02:33:18.814Z,13.07
2017-04-17T02:34:17.802Z,9.28
2017-04-17T02:35:16.823Z,12.75
2017-04-17T02:36:15.808Z,7.30
2017-04-17T02:37:15.010Z,11.63
2017-04-17T02:38:14.282Z,7.08
2017-04-17T02:39:13.302Z,11.52
2017-04-17T02:40:12.269Z,9.58
2017-04-17T02:41:11.190Z,9.95
2017-04-17T02:42:10.157Z,7.82
2017-04-17T02:43:08.707Z,10.65
2017-04-17T02:44:07.945Z,10.90
2017-04-17T02:45:06.936Z,9.82
2017-04-17T02:46:05.901Z,11.32
2017-04-17T02:47:04.852Z,11.17
2017-04-17T02:48:03.830Z,11.37
2017-04-17T02:49:02.785Z,9.52
2017-04-17T02:50:02.049Z,11.02
2017-04-17T02:51:01.112Z,10.30
2017-04-17T02:52:00.480Z,8.45
2017-04-17T02:52:59.434Z,8.92
2017-04-17T02:53:58.415Z,12.05
2017-04-17T02:54:57.411Z,10.93
2017-04-17T02:55:56.768Z,12.48
2017-04-17T02:56:55.784Z,13.75
2017-04-17T02:57:54.761Z,9.32
2017-04-17T02:58:54.101Z,9.10
2017-04-17T02:59:53.450Z,15.25
2017-04-17T03:00:52.436Z,13.60
2017-04-17T03:01:51.781Z,9.67
2017-04-17T03:02:50.734Z,12.52
2017-04-17T03:03:49.704Z,12.35
2017-04-17T03:04:48.749Z,9.73
2017-04-17T03:05:47.875Z,14.28
2017-04-17T03:06:47.618Z,9.97
2017-04-17T03:07:46.909Z,12.40
2017-04-17T03:08:45.878Z,15.38
2017-04-17T03:09:44.401Z,14.88
2017-04-17T03:10:44.220Z,14.25
2017-04-17T03:11:43.149Z,13.93
2017-04-17T03:12:42.146Z,13.00
2017-04-17T03:13:41.394Z,18.73
2017-04-17T03:14:40.384Z,17.97
2017-04-17T03:15:39.457Z,13.60
2017-04-17T03:16:38.406Z,17.57
2017-04-17T03:17:37.391Z,10.95
2017-04-17T03:18:36.353Z,12.52
2017-04-17T03:19:35.733Z,15.53
2017-04-17T03:20:34.710Z,10.65
2017-04-17T03:21:33.745Z,12.27
2017-04-17T03:22:32.708Z,8.68
2017-04-17T03:23:31.714Z,9.22
2017-04-17T03:24:30.840Z,19.80
2017-04-17T03:25:30.071Z,11.37
2017-04-17T03:26:29.036Z,15.55
2017-04-17T03:27:28.021Z,12.77
2017-04-17T03:28:26.977Z,9.92
2017-04-17T03:29:25.969Z,13.77
2017-04-17T03:30:24.977Z,10.25
2017-04-17T03:31:24.293Z,11.77
2017-04-17T03:32:23.266Z,12.08
2017-04-17T03:33:22.271Z,15.78
2017-04-17T03:34:21.230Z,12.02
2017-04-17T03:35:20.345Z,12.82
2017-04-17T03:36:19.301Z,10.93
2017-04-17T03:37:18.652Z,15.13
2017-04-17T03:38:17.707Z,14.33
2017-04-17T03:39:16.821Z,15.30
2017-04-17T03:40:15.778Z,17.38
2017-04-17T03:41:14.741Z,13.35
2017-04-17T03:42:13.738Z,17.35
2017-04-17T03:43:13.049Z,13.45
2017-04-17T03:44:12.006Z,19.88
2017-04-17T03:45:10.935Z,12.52
2017-04-17T03:46:09.905Z,14.75
2017-04-17T03:47:08.543Z,14.82
2017-04-17T03:48:07.532Z,17.63
2017-04-17T03:49:07.158Z,11.50
2017-04-17T03:50:06.236Z,14.37
2017-04-17T03:51:05.545Z,18.72
2017-04-17T03:52:04.547Z,12.38
2017-04-17T03:53:03.535Z,15.35
2017-04-17T03:54:02.882Z,11.62
2017-04-17T03:55:02.171Z,13.87
2017-04-17T03:56:01.133Z,13.73
2017-04-17T03:57:00.076Z,14.80
2017-04-17T03:57:59.045Z,15.40
2017-04-17T03:58:58.069Z,16.22
2017-04-17T03:59:57.021Z,22.32
2017-04-17T04:00:56.641Z,14.02
2017-04-17T04:01:55.636Z,12.85
2017-04-17T04:02:54.613Z,12.18
2017-04-17T04:03:53.666Z,11.05
2017-04-17T04:04:52.632Z,11.95
2017-04-17T04:05:51.594Z,18.85
2017-04-17T04:06:50.833Z,16.88
2017-04-17T04:07:49.806Z,14.00
2017-04-17T04:08:48.757Z,12.72
2017-04-17T04:09:47.729Z,17.43
2017-04-17T04:10:47.095Z,15.00
2017-04-17T04:11:46.044Z,15.05
2017-04-17T04:12:45.294Z,14.03
2017-04-17T04:13:44.271Z,19.88
2017-04-17T04:14:43.269Z,15.78
2017-04-17T04:15:42.266Z,24.45
2017-04-17T04:16:41.346Z,15.07
2017-04-17T04:17:40.445Z,15.82
2017-04-17T04:18:39.809Z,16.28
2017-04-17T04:19:38.953Z,17.08
2017-04-17T04:20:38.552Z,13.58
2017-04-17T04:21:38.024Z,14.40
2017-04-17T04:22:37.139Z,12.52
2017-04-17T04:23:36.963Z,11.75
2017-04-17T04:24:36.400Z,15.20
2017-04-17T04:25:36.100Z,14.75
2017-04-17T04:26:35.186Z,11.23
2017-04-17T04:27:34.309Z,10.67
2017-04-17T04:28:33.763Z,15.25
2017-04-17T04:29:32.827Z,10.35
2017-04-17T04:30:32.318Z,14.67
2017-04-17T04:31:31.538Z,13.22
2017-04-17T04:32:30.613Z,10.57
2017-04-17T04:33:29.669Z,12.22
2017-04-17T04:34:28.897Z,13.45
2017-04-17T04:35:28.154Z,11.38
2017-04-17T04:36:27.752Z,15.00
2017-04-17T04:37:26.824Z,12.25
2017-04-17T04:38:25.962Z,12.40
2017-04-17T04:39:25.157Z,14.20
2017-04-17T04:40:24.518Z,13.70
2017-04-17T04:41:23.553Z,17.62
2017-04-17T04:42:22.929Z,17.70
2017-04-17T04:43:22.000Z,16.10
2017-04-17T04:44:21.016Z,17.42
2017-04-17T04:45:20.013Z,15.95
2017-04-17T04:46:18.604Z,16.77
2017-04-17T04:47:17.643Z,19.85
2017-04-17T04:48:16.977Z,15.10
2017-04-17T04:49:16.066Z,16.08
2017-04-17T04:50:15.034Z,12.88
2017-04-17T04:51:14.105Z,23.88
2017-04-17T04:52:13.064Z,15.50
2017-04-17T04:53:12.108Z,17.83
2017-04-17T04:54:11.382Z,15.90
2017-04-17T04:55:10.601Z,24.03
2017-04-17T04:56:09.633Z,19.13
2017-04-17T04:57:08.578Z,19.00
2017-04-17T04:58:07.571Z,20.87
2017-04-17T04:59:06.549Z,18.67
2017-04-17T05:00:05.972Z,22.90
2017-04-17T05:01:05.457Z,23.27
2017-04-17T05:02:04.478Z,26.15
2017-04-17T05:03:03.800Z,21.33
2017-04-17T05:04:02.773Z,23.08
2017-04-17T05:05:01.725Z,18.98
2017-04-17T05:06:01.107Z,18.90
2017-04-17T05:07:00.122Z,14.75
2017-04-17T05:07:59.353Z,18.25
2017-04-17T05:08:58.271Z,17.63
2017-04-17T05:09:57.208Z,18.35
2017-04-17T05:10:56.179Z,18.88
2017-04-17T05:11:55.513Z,16.72
2017-04-17T05:12:54.626Z,19.75
2017-04-17T05:13:53.615Z,18.98
2017-04-17T05:14:52.598Z,17.57
2017-04-17T05:15:51.574Z,18.70
2017-04-17T05:16:50.539Z,22.50
2017-04-17T05:17:49.761Z,18.95
2017-04-17T05:18:48.722Z,21.45
2017-04-17T05:19:47.677Z,28.07
2017-04-17T05:20:46.644Z,26.22
2017-04-17T05:21:45.628Z,18.95
2017-04-17T05:22:44.866Z,18.45
2017-04-17T05:23:44.225Z,23.45
2017-04-17T05:24:43.173Z,18.62
2017-04-17T05:25:42.162Z,20.85
2017-04-17T05:26:41.068Z,20.22
2017-04-17T05:27:40.008Z,19.42
2017-04-17T05:28:38.973Z,21.08
2017-04-17T05:29:38.235Z,18.00
2017-04-17T05:30:40.688Z,19.85
2017-04-17T05:31:39.822Z,18.55
2017-04-17T05:32:39.429Z,12.45
2017-04-17T05:33:38.349Z,12.13
2017-04-17T05:34:37.522Z,19.17
2017-04-17T05:35:36.935Z,16.52
2017-04-17T05:36:35.942Z,17.53
2017-04-17T05:37:34.877Z,14.53
2017-04-17T05:38:34.189Z,13.45
2017-04-17T05:39:33.189Z,11.65
2017-04-17T05:40:32.565Z,16.22
2017-04-17T05:41:31.572Z,13.63
2017-04-17T05:42:30.544Z,14.00
2017-04-17T05:43:29.610Z,14.17
2017-04-17T05:44:28.551Z,16.02
2017-04-17T05:45:27.549Z,13.60
2017-04-17T05:46:26.860Z,12.57
2017-04-17T05:47:25.878Z,18.82
2017-04-17T05:48:24.862Z,15.05
2017-04-17T05:49:23.441Z,13.47
2017-04-17T05:50:22.376Z,12.08
2017-04-17T05:51:21.325Z,12.27
2017-04-17T05:52:20.648Z,15.07
2017-04-17T05:53:19.600Z,12.95
2017-04-17T05:54:18.593Z,22.00
2017-04-17T05:55:17.185Z,13.85
2017-04-17T05:56:16.500Z,14.48
2017-04-17T05:57:15.493Z,12.35
2017-04-17T05:58:14.917Z,18.52
2017-04-17T05:59:13.864Z,13.97
2017-04-17T06:00:12.987Z,12.65
2017-04-17T06:01:11.960Z,11.80
2017-04-17T06:02:10.917Z,11.87
2017-04-17T06:03:09.973Z,15.78
2017-04-17T06:04:09.570Z,14.73
2017-04-17T06:05:08.543Z,11.52
2017-04-17T06:06:07.667Z,11.82
2017-04-17T06:07:06.735Z,11.70
2017-04-17T06:08:06.028Z,12.62
2017-04-17T06:09:05.283Z,11.98
2017-04-17T06:10:05.003Z,13.95
2017-04-17T06:11:04.358Z,11.82
2017-04-17T06:12:03.309Z,12.60
2017-04-17T06:13:02.260Z,14.92
2017-04-17T06:14:01.425Z,11.50
2017-04-17T06:15:00.330Z,12.85
2017-04-17T06:15:59.561Z,12.87
2017-04-17T06:16:58.603Z,10.38
2017-04-17T06:17:57.517Z,15.78
2017-04-17T06:18:56.465Z,13.90
2017-04-17T06:19:55.450Z,12.22
2017-04-17T06:20:54.493Z,11.97
2017-04-17T06:21:53.819Z,12.92
2017-04-17T06:22:53.647Z,14.38
2017-04-17T06:23:52.604Z,12.17
2017-04-17T06:24:51.609Z,11.62
2017-04-17T06:25:50.621Z,11.60
2017-04-17T06:26:49.636Z,13.52
2017-04-17T06:27:48.950Z,12.77
2017-04-17T06:28:48.546Z,13.15
2017-04-17T06:29:47.501Z,13.72
2017-04-17T06:30:46.496Z,12.03
2017-04-17T06:31:45.698Z,9.95
2017-04-17T06:32:44.294Z,13.75
2017-04-17T06:33:43.301Z,11.52
2017-04-17T06:34:42.312Z,15.37
2017-04-17T06:35:41.316Z,16.22
2017-04-17T06:36:40.929Z,13.95
2017-04-17T06:37:39.975Z,14.60
2017-04-17T06:38:39.309Z,15.13
2017-04-17T06:39:38.343Z,16.40
2017-04-17T06:40:38.429Z,12.68
2017-04-17T06:41:37.440Z,15.80
2017-04-17T06:42:36.410Z,16.60
2017-04-17T06:43:35.978Z,15.43
2017-04-17T06:44:35.332Z,14.43
2017-04-17T06:45:34.374Z,17.43
2017-04-17T06:46:33.344Z,13.80
2017-04-17T06:47:32.393Z,15.20
2017-04-17T06:48:31.350Z,13.02
2017-04-17T06:49:30.722Z,14.48
2017-04-17T06:50:30.171Z,14.83
2017-04-17T06:51:29.499Z,13.25
2017-04-17T06:52:28.661Z,11.43
2017-04-17T06:53:27.826Z,14.72
2017-04-17T06:54:26.792Z,16.82
2017-04-17T06:55:25.845Z,13.35
2017-04-17T06:56:26.841Z,14.55
2017-04-17T06:57:25.850Z,15.90
2017-04-17T06:58:24.822Z,18.78
2017-04-17T06:59:23.779Z,17.63
2017-04-17T07:00:22.828Z,25.75
2017-04-17T07:01:21.806Z,15.30
2017-04-17T07:02:21.245Z,16.37
2017-04-17T07:03:20.330Z,15.32
2017-04-17T07:04:19.381Z,18.70
2017-04-17T07:05:18.326Z,20.13
2017-04-17T07:06:17.868Z,18.77
2017-04-17T07:07:16.862Z,16.58
2017-04-17T07:08:16.483Z,17.80
2017-04-17T07:09:15.405Z,17.47
2017-04-17T07:10:14.406Z,18.50
2017-04-17T07:11:13.413Z,16.53
2017-04-17T07:12:12.361Z,15.58
2017-04-17T07:13:11.773Z,17.67
2017-04-17T07:14:12.773Z,16.57
2017-04-17T07:15:11.735Z,16.52
2017-04-17T07:16:11.097Z,18.55
2017-04-17T07:17:10.163Z,13.75
2017-04-17T07:18:09.196Z,19.05
2017-04-17T07:19:08.207Z,16.15
2017-04-17T07:20:07.654Z,15.70
2017-04-17T07:21:06.641Z,20.57
2017-04-17T07:22:05.611Z,15.53
2017-04-17T07:23:04.687Z,17.48
2017-04-17T07:24:03.735Z,17.68
2017-04-17T07:25:02.408Z,18.65
2017-04-17T07:26:01.767Z,18.18
2017-04-17T07:27:00.830Z,18.85
2017-04-17T07:27:59.904Z,18.72
2017-04-17T07:29:02.501Z,21.12
2017-04-17T07:30:01.516Z,20.87
2017-04-17T07:31:00.659Z,18.13
2017-04-17T07:32:00.025Z,17.33
2017-04-17T07:32:58.994Z,23.05
2017-04-17T07:33:58.068Z,19.42
2017-04-17T07:34:57.494Z,20.35
2017-04-17T07:35:56.695Z,21.72
2017-04-17T07:36:57.526Z,19.75
2017-04-17T07:37:57.298Z,19.67
2017-04-17T07:38:56.675Z,19.30
2017-04-17T07:39:55.628Z,20.18
2017-04-17T07:40:54.657Z,20.48
2017-04-17T07:41:53.640Z,18.33
2017-04-17T07:42:53.121Z,25.20
2017-04-17T07:43:52.434Z,20.33
2017-04-17T07:44:51.444Z,20.63
2017-04-17T07:45:50.480Z,24.20
2017-04-17T07:46:49.581Z,24.63
2017-04-17T07:47:48.616Z,22.90
2017-04-17T07:48:47.760Z,22.43
2017-04-17T07:49:47.029Z,21.77
2017-04-17T07:50:46.712Z,19.20
2017-04-17T07:51:45.706Z,19.27
2017-04-17T07:52:44.854Z,19.17
2017-04-17T07:53:44.268Z,18.90
2017-04-17T07:54:43.921Z,16.83
2017-04-17T07:55:43.169Z,17.47
2017-04-17T07:56:42.442Z,16.62
2017-04-17T07:57:41.733Z,16.60
2017-04-17T07:58:41.102Z,16.87
2017-04-17T07:59:40.104Z,18.32
2017-04-17T08:00:39.251Z,18.05
2017-04-17T08:01:38.787Z,17.72
2017-04-17T08:02:40.718Z,55.30
2017-04-17T08:03:39.739Z,20.90
2017-04-17T08:04:38.393Z,23.00
2017-04-17T08:05:37.559Z,37.03
2017-04-17T08:06:36.708Z,45.55
2017-04-17T08:07:36.054Z,25.80
2017-04-17T08:08:35.262Z,29.93
2017-04-17T08:09:34.210Z,26.85
2017-04-17T08:10:33.186Z,27.75
2017-04-17T08:11:32.158Z,21.73
2017-04-17T08:12:31.139Z,68.80
2017-04-17T08:13:30.424Z,62.50
2017-04-17T08:14:29.428Z,47.63
2017-04-17T08:15:28.455Z,34.55
2017-04-17T08:16:27.812Z,31.83
2017-04-17T08:17:26.768Z,22.42
2017-04-17T08:18:26.079Z,23.25
2017-04-17T08:19:25.271Z,21.53
2017-04-17T08:20:24.211Z,27.90
2017-04-17T08:21:23.159Z,25.25
2017-04-17T08:22:22.187Z,26.67
2017-04-17T08:23:21.240Z,72.45
2017-04-17T08:24:20.545Z,29.87
2017-04-17T08:25:20.153Z,24.70
2017-04-17T08:26:20.222Z,44.48
2017-04-17T08:27:19.270Z,18.20
2017-04-17T08:28:18.450Z,28.47
2017-04-17T08:29:17.413Z,15.05
2017-04-17T08:30:16.391Z,15.55
2017-04-17T08:31:20.065Z,16.52
2017-04-17T08:32:19.031Z,14.43
2017-04-17T08:33:18.006Z,12.67
2017-04-17T08:34:17.110Z,13.47
2017-04-17T08:35:16.096Z,14.75
2017-04-17T08:36:15.091Z,12.37
2017-04-17T08:37:15.053Z,19.58
2017-04-17T08:38:14.669Z,15.43
2017-04-17T08:39:14.786Z,14.05
2017-04-17T08:40:13.816Z,12.25
2017-04-17T08:41:12.841Z,12.93
2017-04-17T08:42:12.180Z,14.80
2017-04-17T08:43:11.586Z,13.70
2017-04-17T08:44:10.665Z,22.38
2017-04-17T08:45:09.959Z,14.75
2017-04-17T08:46:10.090Z,12.23
2017-04-17T08:47:09.341Z,13.38
2017-04-17T08:48:08.517Z,18.17
2017-04-17T08:49:08.181Z,17.75
2017-04-17T08:50:07.495Z,11.52
2017-04-17T08:51:06.412Z,12.35
2017-04-17T08:52:05.968Z,12.72
2017-04-17T08:53:04.991Z,20.35
2017-04-17T08:54:04.201Z,12.45
2017-04-17T08:55:03.567Z,20.53
2017-04-17T08:56:02.742Z,18.45
2017-04-17T08:57:02.008Z,45.77
2017-04-17T08:58:00.990Z,30.67
2017-04-17T08:59:00.149Z,17.78
2017-04-17T08:59:59.185Z,15.47
2017-04-17T09:00:58.596Z,17.08
2017-04-17T09:01:58.396Z,11.93
2017-04-17T09:02:57.994Z,10.67
2017-04-17T09:03:57.614Z,8.18
2017-04-17T09:04:57.256Z,7.52
2017-04-17T09:05:56.380Z,10.18
2017-04-17T09:06:55.785Z,8.38
2017-04-17T09:07:55.002Z,9.08
2017-04-17T09:08:54.208Z,9.97
2017-04-17T09:09:53.353Z,11.08
2017-04-17T09:10:52.494Z,13.82
2017-04-17T09:11:51.248Z,10.28
2017-04-17T09:12:50.651Z,9.37
2017-04-17T09:13:49.775Z,10.15
2017-04-17T09:14:48.925Z,18.83
2017-04-17T09:15:47.707Z,14.28
2017-04-17T09:16:46.777Z,11.50
2017-04-17T09:17:45.924Z,10.47
2017-04-17T09:18:45.091Z,12.78
2017-04-17T09:19:44.260Z,11.02
2017-04-17T09:20:43.458Z,13.32
2017-04-17T09:21:42.650Z,11.40
2017-04-17T09:22:41.807Z,10.60
2017-04-17T09:23:40.865Z,13.70
2017-04-17T09:24:40.156Z,16.27
2017-04-17T09:25:39.216Z,18.82
2017-04-17T09:26:38.284Z,15.38
2017-04-17T09:27:37.358Z,16.03
2017-04-17T09:28:36.618Z,14.12
2017-04-17T09:29:36.509Z,11.90
2017-04-17T09:30:36.329Z,13.15
2017-04-17T09:31:35.511Z,14.52
2017-04-17T09:32:34.973Z,14.33
2017-04-17T09:33:34.039Z,9.12
2017-04-17T09:34:33.980Z,11.67
2017-04-17T09:35:33.202Z,11.78
2017-04-17T09:36:32.530Z,11.35
2017-04-17T09:37:31.639Z,10.72
2017-04-17T09:38:30.621Z,12.70
2017-04-17T09:39:29.612Z,11.20
2017-04-17T09:40:28.561Z,9.42
2017-04-17T09:41:27.596Z,9.87
2017-04-17T09:42:26.908Z,11.73
2017-04-17T09:43:25.883Z,12.40
2017-04-17T09:44:25.170Z,11.08
2017-04-17T09:45:24.180Z,10.15
2017-04-17T09:46:23.117Z,11.68
2017-04-17T09:47:22.024Z,12.37
2017-04-17T09:48:21.274Z,11.95
2017-04-17T09:49:20.198Z,11.18
2017-04-17T09:50:19.164Z,10.47
2017-04-17T09:51:18.086Z,9.63
2017-04-17T09:52:17.049Z,9.35
2017-04-17T09:53:16.041Z,8.75
2017-04-17T09:54:15.256Z,11.30
2017-04-17T09:55:14.193Z,9.32
2017-04-17T09:56:13.133Z,9.78
2017-04-17T09:57:12.117Z,9.93
2017-04-17T09:58:11.098Z,9.33
2017-04-17T09:59:15.799Z,10.18
2017-04-17T10:00:14.784Z,9.82
2017-04-17T10:01:13.765Z,9.45
2017-04-17T10:02:12.708Z,9.95
2017-04-17T10:03:12.091Z,9.92
2017-04-17T10:04:11.022Z,9.23
2017-04-17T10:05:10.373Z,9.70
2017-04-17T10:06:09.306Z,10.45
2017-04-17T10:07:08.309Z,9.93
2017-04-17T10:08:07.290Z,10.67
2017-04-17T10:09:06.241Z,10.58
2017-04-17T10:10:05.250Z,11.17
2017-04-17T10:11:04.452Z,10.48
2017-04-17T10:12:03.393Z,11.12
2017-04-17T10:13:02.639Z,10.55
2017-04-17T10:14:01.563Z,10.07
2017-04-17T10:15:00.640Z,11.02
2017-04-17T10:16:00.086Z,10.65
2017-04-17T10:16:59.046Z,10.32
2017-04-17T10:17:58.343Z,9.58
2017-04-17T10:18:57.421Z,10.27
2017-04-17T10:19:56.784Z,9.18
2017-04-17T10:20:55.741Z,9.18
2017-04-17T10:21:54.992Z,8.98
2017-04-17T10:22:53.981Z,10.08
2017-04-17T10:24:01.828Z,9.35
2017-04-17T10:25:00.749Z,8.18
2017-04-17T10:25:59.693Z,7.93
2017-04-17T10:26:58.881Z,8.67
2017-04-17T10:27:59.736Z,7.50
2017-04-17T10:29:00.350Z,7.80
2017-04-17T10:30:01.355Z,7.62
2017-04-17T10:31:02.255Z,7.42
2017-04-17T10:32:02.523Z,7.62
2017-04-17T10:33:03.328Z,6.80
2017-04-17T10:34:05.005Z,7.22
2017-04-17T10:35:05.430Z,7.83
2017-04-17T10:36:06.552Z,7.62
2017-04-17T10:37:05.755Z,7.25
2017-04-17T10:38:04.735Z,6.72
2017-04-17T10:39:03.801Z,5.98
2017-04-17T10:40:02.756Z,6.30
2017-04-17T10:41:01.720Z,6.35
2017-04-17T10:42:00.638Z,6.00
2017-04-17T10:42:59.965Z,5.98
2017-04-17T10:43:59.042Z,8.23
2017-04-17T10:44:57.980Z,8.97
2017-04-17T10:46:01.926Z,9.85
2017-04-17T10:47:00.838Z,7.60
2017-04-17T10:47:59.813Z,7.32
2017-04-17T10:48:59.798Z,5.75
2017-04-17T10:50:04.050Z,4.92
2017-04-17T10:51:03.133Z,3.58
2017-04-17T10:52:02.119Z,2.93
2017-04-17T10:53:01.222Z,3.60
2017-04-17T10:54:00.134Z,3.02
2017-04-17T10:54:59.069Z,2.60
2017-04-17T10:55:58.066Z,2.67
2017-04-17T10:56:56.988Z,3.27
2017-04-17T10:57:55.987Z,3.42
2017-04-17T10:58:55.429Z,3.00
2017-04-17T10:59:54.346Z,4.53
2017-04-17T11:00:53.303Z,6.30
2017-04-17T11:01:52.644Z,4.08
2017-04-17T11:02:51.616Z,3.10
2017-04-17T11:03:50.529Z,2.82
2017-04-17T11:04:49.781Z,4.13
2017-04-17T11:05:48.759Z,3.55
2017-04-17T11:06:47.757Z,2.70
2017-04-17T11:07:47.009Z,3.52
2017-04-17T11:08:45.930Z,3.35
2017-04-17T11:09:44.900Z,2.62
2017-04-17T11:10:44.187Z,2.68
2017-04-17T11:11:43.170Z,3.35
2017-04-17T11:12:42.117Z,2.53
2017-04-17T11:13:41.078Z,2.90
2017-04-17T11:14:40.016Z,2.90
2017-04-17T11:15:38.983Z,3.58
2017-04-17T11:16:38.189Z,3.47
2017-04-17T11:17:37.785Z,2.62
2017-04-17T11:18:36.796Z,3.55
2017-04-17T11:19:35.995Z,3.17
2017-04-17T11:20:34.970Z,2.73
2017-04-17T11:21:33.926Z,2.45
2017-04-17T11:22:33.207Z,2.85
2017-04-17T11:23:32.136Z,2.15
2017-04-17T11:24:31.153Z,13.00
2017-04-17T11:25:30.079Z,4.42
2017-04-17T11:26:30.600Z,2.75
2017-04-17T11:27:29.929Z,3.62
2017-04-17T11:28:29.251Z,4.10
2017-04-17T11:29:28.171Z,3.47
2017-04-17T11:30:27.092Z,3.73
2017-04-17T11:31:26.029Z,3.50
2017-04-17T11:32:24.963Z,3.17
2017-04-17T11:33:23.886Z,3.02
2017-04-17T11:34:23.148Z,3.43
2017-04-17T11:35:22.007Z,3.50
2017-04-17T11:36:21.020Z,5.82
2017-04-17T11:37:19.965Z,3.37
2017-04-17T11:38:18.920Z,3.43
2017-04-17T11:39:17.889Z,3.02
2017-04-17T11:40:16.952Z,2.58
2017-04-17T11:41:17.061Z,2.23
2017-04-17T11:42:16.034Z,1.53
2017-04-17T11:43:14.974Z,1.82
2017-04-17T11:44:13.884Z,1.93
2017-04-17T11:45:14.390Z,2.68
2017-04-17T11:46:14.742Z,2.90
2017-04-17T11:47:14.870Z,2.93
2017-04-17T11:48:13.821Z,2.98
2017-04-17T11:49:12.775Z,3.22
2017-04-17T11:50:11.772Z,2.73
2017-04-17T11:51:10.737Z,3.32
2017-04-17T11:52:10.162Z,4.25
2017-04-17T11:53:09.188Z,3.70
2017-04-17T11:54:08.140Z,3.10
2017-04-17T11:55:07.151Z,3.03
2017-04-17T11:56:06.115Z,3.03
2017-04-17T11:57:05.097Z,3.57
2017-04-17T11:58:22.858Z,3.75
2017-04-17T11:59:21.783Z,6.52
2017-04-17T12:00:20.730Z,3.00
2017-04-17T12:01:20.060Z,3.27
2017-04-17T12:02:19.021Z,3.33
2017-04-17T12:03:18.109Z,3.12
2017-04-17T12:04:17.412Z,3.57
2017-04-17T12:05:16.441Z,2.95
2017-04-17T12:06:15.388Z,4.00
2017-04-17T12:07:14.333Z,3.02
2017-04-17T12:08:13.725Z,2.88
2017-04-17T12:09:12.817Z,3.15
2017-04-17T12:10:12.093Z,3.23
2017-04-17T12:11:11.058Z,3.72
2017-04-17T12:12:10.061Z,3.32
2017-04-17T12:13:09.049Z,2.70
2017-04-17T12:14:08.029Z,2.50
2017-04-17T12:15:06.965Z,4.17
2017-04-17T12:16:06.233Z,2.58
2017-04-17T12:17:05.172Z,2.85
2017-04-17T12:18:04.400Z,3.45
2017-04-17T12:19:03.953Z,2.67
2017-04-17T12:20:03.283Z,4.75
2017-04-17T12:21:02.772Z,3.30
2017-04-17T12:22:02.086Z,2.77
2017-04-17T12:23:01.094Z,2.33
2017-04-17T12:24:00.135Z,2.93
2017-04-17T12:24:59.061Z,2.10
2017-04-17T12:25:57.979Z,3.28
2017-04-17T12:26:57.045Z,3.92
2017-04-17T12:27:55.840Z,6.25
2017-04-17T12:28:54.786Z,3.77
2017-04-17T12:29:53.757Z,3.42
2017-04-17T12:30:52.806Z,3.18
2017-04-17T12:31:51.908Z,3.60
2017-04-17T12:32:51.013Z,3.47
2017-04-17T12:33:50.353Z,2.65
2017-04-17T12:34:49.812Z,3.00
2017-04-17T12:35:48.771Z,3.38
2017-04-17T12:36:47.715Z,70.43
2017-04-17T12:37:47.009Z,6.32
2017-04-17T12:38:46.097Z,6.87
2017-04-17T12:39:45.124Z,6.25
2017-04-17T12:40:44.074Z,7.78
2017-04-17T12:41:43.037Z,3.68
2017-04-17T12:42:41.977Z,3.77
2017-04-17T12:43:40.955Z,3.72
2017-04-17T12:44:39.920Z,3.25
2017-04-17T12:45:39.416Z,3.55
2017-04-17T12:46:38.363Z,3.18
2017-04-17T12:47:37.296Z,4.20
2017-04-17T12:48:36.507Z,3.73
2017-04-17T12:49:35.722Z,3.87
2017-04-17T12:50:34.632Z,4.08
2017-04-17T12:51:33.903Z,3.08